Time;durP1;ratioP1;P1;durP2;ratioP2;P2;SDS_P1;SDS_P2;PMS_P1;PMS_P2;Temp;Humidity;BMP_temperature;BMP_pressure;BME280_temperature;BME280_humidity;BME280_pressure;Samples;Min_cycle;Max_cycle;Signal;HPM_P1;HPM_P2
2023/01/04 00:00:10;;;;;;;5.47;1.58;;;;;;;8.33;45.78;101855.75;5026171;28;20106;-84
2023/01/04 00:02:38;;;;;;;2.67;1.50;;;;;;;8.33;45.98;101844.84;5026332;28;20060;-84
2023/01/04 00:05:07;;;;;;;3.70;1.30;;;;;;;8.36;45.58;101837.41;5025171;28;20041;-84
2023/01/04 00:07:35;;;;;;;2.55;1.10;;;;;;;8.35;45.73;101833.78;5060462;28;20380;-84
2023/01/04 00:10:05;;;;;;;3.15;1.30;;;;;;;8.36;45.98;101834.69;5031831;28;20041;-84
2023/01/04 00:12:35;;;;;;;2.80;1.20;;;;;;;8.38;45.86;101817.25;5028454;28;20584;-84
2023/01/04 00:15:03;;;;;;;3.28;1.20;;;;;;;8.38;45.68;101817.25;5033698;28;20388;-84
2023/01/04 00:17:31;;;;;;;2.85;1.25;;;;;;;8.39;46.08;101809.94;5032048;28;20397;-84
2023/01/04 00:19:59;;;;;;;2.88;1.10;;;;;;;8.41;45.77;101810.72;5035102;28;20093;-84
2023/01/04 00:22:26;;;;;;;3.10;1.23;;;;;;;8.43;45.90;101811.50;5023424;28;20049;-84
2023/01/04 00:24:54;;;;;;;3.47;1.20;;;;;;;8.43;45.97;101806.91;5046136;28;20049;-84
2023/01/04 00:27:24;;;;;;;3.10;1.10;;;;;;;8.46;46.04;101811.31;5025368;28;20049;-84
2023/01/04 00:29:51;;;;;;;3.22;1.10;;;;;;;8.45;46.28;101799.50;5043179;28;20096;-84
2023/01/04 00:32:19;;;;;;;2.22;1.00;;;;;;;8.47;46.33;101794.84;5047018;28;20037;-85
2023/01/04 00:34:47;;;;;;;2.17;1.02;;;;;;;8.48;46.03;101796.59;5014552;28;20038;-84
2023/01/04 00:37:15;;;;;;;3.53;1.20;;;;;;;8.50;45.87;101791.06;5047367;28;20052;-85
2023/01/04 00:39:43;;;;;;;3.67;0.98;;;;;;;8.52;46.33;101786.34;5030798;28;20048;-85
2023/01/04 00:42:11;;;;;;;1.92;0.95;;;;;;;8.53;46.40;101788.97;5027249;28;20467;-84
2023/01/04 00:44:40;;;;;;;2.10;0.90;;;;;;;8.56;46.17;101777.00;5015517;28;20088;-84
2023/01/04 00:47:08;;;;;;;2.45;1.10;;;;;;;8.56;46.33;101771.56;5064397;28;20041;-84
2023/01/04 00:49:36;;;;;;;2.78;1.20;;;;;;;8.58;46.51;101775.94;5023357;28;20044;-84
2023/01/04 00:52:04;;;;;;;1.75;1.00;;;;;;;8.59;46.40;101771.34;5056030;28;20051;-84
2023/01/04 00:54:32;;;;;;;1.98;0.88;;;;;;;8.60;46.30;101764.91;5063435;28;20045;-84
2023/01/04 00:57:00;;;;;;;3.55;1.20;;;;;;;8.61;46.67;101758.47;5035188;28;20083;-84
2023/01/04 00:59:28;;;;;;;3.35;1.10;;;;;;;8.63;46.63;101764.72;5031315;28;20120;-84
2023/01/04 01:01:58;;;;;;;2.92;0.80;;;;;;;8.65;46.80;101760.03;5036014;28;20045;-84
2023/01/04 01:04:26;;;;;;;2.65;1.30;;;;;;;8.64;47.03;101758.28;5048720;28;20037;-84
2023/01/04 01:06:55;;;;;;;2.55;0.95;;;;;;;8.66;46.89;101751.75;5030050;28;20045;-85
2023/01/04 01:09:27;;;;;;;3.20;1.10;;;;;;;8.66;47.08;101749.03;5049795;28;20057;-85
2023/01/04 01:11:59;;;;;;;2.40;1.00;;;;;;;8.64;46.97;101734.59;5061348;28;20041;-85
2023/01/04 01:14:34;;;;;;;2.15;0.90;;;;;;;8.63;46.99;101730.13;5032559;28;20064;-85
2023/01/04 01:17:08;;;;;;;2.28;1.05;;;;;;;8.63;47.19;101719.22;5029932;28;20041;-85
2023/01/04 01:19:38;;;;;;;3.88;1.27;;;;;;;8.59;47.13;101723.09;5021992;28;20065;-85
2023/01/04 01:22:07;;;;;;;2.65;1.10;;;;;;;8.59;47.26;101725.81;5034398;28;20061;-85
2023/01/04 01:24:36;;;;;;;4.05;1.20;;;;;;;8.59;47.62;101719.50;5059248;28;20052;-84
2023/01/04 01:27:04;;;;;;;4.13;1.23;;;;;;;8.58;47.87;101713.19;5024903;28;20103;-85
2023/01/04 01:29:33;;;;;;;3.25;0.98;;;;;;;8.57;48.00;101710.56;5056299;28;20427;-85
2023/01/04 01:32:01;;;;;;;2.17;1.00;;;;;;;8.55;47.60;101710.66;5031591;28;20191;-85
2023/01/04 01:34:31;;;;;;;4.45;2.20;;;;;;;8.55;48.22;101709.78;5029969;28;20124;-85
2023/01/04 01:36:59;;;;;;;2.60;1.10;;;;;;;8.52;48.10;101699.03;5051700;28;20060;-85
2023/01/04 01:39:27;;;;;;;5.03;1.27;;;;;;;8.51;47.94;101694.56;5025619;28;20037;-85
2023/01/04 01:41:55;;;;;;;3.03;1.00;;;;;;;8.48;48.12;101690.22;5059338;28;20053;-85
2023/01/04 01:44:59;;;;;;;1.95;0.80;;;;;;;8.48;49.04;101689.31;5025710;28;20506;-85
2023/01/04 01:47:34;;;;;;;4.10;1.20;;;;;;;8.44;48.43;101680.47;5050330;28;20484;-85
2023/01/04 01:50:05;;;;;;;4.57;1.02;;;;;;;8.45;48.51;101678.59;5026996;28;20381;-85
2023/01/04 01:52:40;;;;;;;2.65;0.90;;;;;;;8.43;49.14;101673.25;5042808;28;20514;-85
2023/01/04 01:55:11;;;;;;;2.15;1.38;;;;;;;8.42;49.03;101676.09;5041917;28;20065;-84
2023/01/04 01:57:40;;;;;;;2.55;1.00;;;;;;;8.40;48.73;101676.19;5029239;28;20044;-85
2023/01/04 02:00:12;;;;;;;3.95;1.30;;;;;;;8.39;48.96;101668.97;5055581;28;20045;-85
2023/01/04 02:02:45;;;;;;;2.40;1.10;;;;;;;8.38;49.31;101669.06;5045221;28;20090;-84
2023/01/04 02:05:14;;;;;;;5.50;1.40;;;;;;;8.36;49.35;101682.81;5031875;28;20594;-84
2023/01/04 02:07:43;;;;;;;3.78;1.00;;;;;;;8.36;49.39;101669.16;5029189;28;20042;-85
2023/01/04 02:10:11;;;;;;;5.75;1.30;;;;;;;8.36;49.26;101673.75;5016037;28;20048;-86
2023/01/04 02:12:40;;;;;;;3.85;1.20;;;;;;;8.32;49.32;101673.97;5062207;28;20040;-85
2023/01/04 02:15:08;;;;;;;3.30;1.10;;;;;;;8.33;49.73;101663.94;5029719;28;20037;-85
2023/01/04 02:17:42;;;;;;;5.40;1.30;;;;;;;8.34;49.88;101666.53;5031386;28;20414;-85
2023/01/04 02:20:33;;;;;;;2.80;1.00;;;;;;;8.32;50.59;101665.78;5031929;28;20048;-85
2023/01/04 02:23:38;;;;;;;3.13;1.20;;;;;;;8.26;50.88;101662.56;5047964;28;20065;-85
2023/01/04 02:26:36;;;;;;;4.00;1.10;;;;;;;8.24;51.12;101651.78;5040178;28;20047;-85
2023/01/04 02:29:36;;;;;;;3.20;1.02;;;;;;;8.22;51.02;101659.19;5027651;28;20128;-85
2023/01/04 02:32:12;;;;;;;3.25;1.10;;;;;;;8.21;51.08;101656.53;5018947;28;20542;-85
2023/01/04 02:34:48;;;;;;;4.20;1.27;;;;;;;8.20;51.04;101649.34;5049528;28;20053;-84
2023/01/04 02:37:36;;;;;;;2.42;1.02;;;;;;;8.17;51.04;101655.88;5038885;28;20398;-85
2023/01/04 02:40:13;;;;;;;2.15;0.98;;;;;;;8.17;50.68;101649.56;5015755;28;20083;-84
2023/01/04 02:45:46;;;;;;;2.10;1.00;;;;;;;8.13;50.97;101628.88;5015138;28;20033;-84
2023/01/04 02:51:03;;;;;;;3.35;1.20;;;;;;;8.10;50.77;101616.31;5036065;28;20102;-85
2023/01/04 02:53:37;;;;;;;3.88;1.30;;;;;;;8.13;51.40;101621.59;5029360;28;20047;-85
2023/01/04 02:56:18;;;;;;;2.40;1.05;;;;;;;8.14;51.71;101607.00;5061339;28;20566;-84
2023/01/04 02:59:05;;;;;;;2.95;1.10;;;;;;;8.15;52.39;101613.31;5027451;28;20547;-84
2023/01/04 03:07:35;;;;;;;;;;;;;;;7.87;52.29;101598.72;5043788;28;20076;-77
2023/01/04 03:10:08;;;;;;;1.75;0.77;;;;;;;8.12;51.35;101592.53;5054155;28;19945;-77
2023/01/04 03:12:43;;;;;;;3.20;1.15;;;;;;;8.16;51.56;101599.59;5040118;28;20037;-77
2023/01/04 03:15:16;;;;;;;3.10;0.90;;;;;;;8.19;51.44;101579.41;5034146;28;20060;-77
2023/01/04 03:17:48;;;;;;;4.53;1.20;;;;;;;8.20;51.29;101586.63;5054395;28;20132;-77
2023/01/04 03:20:20;;;;;;;3.43;1.10;;;;;;;8.21;51.41;101583.78;5060205;28;20045;-76
2023/01/04 03:37:04;;;;;;;1.17;0.70;;;;;;;8.32;51.86;101562.16;5055037;28;20105;-77
2023/01/04 03:48:31;;;;;;;1.85;0.75;;;;;;;8.42;52.11;101545.16;5045476;28;20571;-78
2023/01/04 03:51:13;;;;;;;0.98;0.50;;;;;;;8.44;52.45;101541.34;5044531;28;20128;-78
2023/01/04 03:53:52;;;;;;;1.45;0.40;;;;;;;8.45;52.38;101544.94;5048240;28;20102;-78
2023/01/04 03:56:22;;;;;;;1.08;0.50;;;;;;;8.48;51.63;101534.72;5060258;28;20040;-78
2023/01/04 03:58:53;;;;;;;1.00;0.50;;;;;;;8.50;51.76;101535.50;5048107;28;20469;-78
2023/01/04 04:01:23;;;;;;;0.40;0.40;;;;;;;8.53;51.59;101531.66;5059302;28;20043;-78
2023/01/04 04:09:24;;;;;;;1.70;0.70;;;;;;;8.61;51.92;101502.88;5064484;28;20052;-77
2023/01/04 04:11:52;;;;;;;2.45;0.90;;;;;;;8.63;51.93;101506.38;5064928;28;20033;-78
2023/01/04 04:14:19;;;;;;;0.70;0.50;;;;;;;8.67;52.16;101507.03;5056721;28;20040;-78
2023/01/04 04:16:47;;;;;;;0.95;0.50;;;;;;;8.69;52.04;101516.84;5062577;28;20052;-78
2023/01/04 04:19:15;;;;;;;1.42;0.50;;;;;;;8.72;52.22;101507.59;5057330;28;20045;-78
2023/01/04 04:21:43;;;;;;;1.08;0.65;;;;;;;8.75;51.93;101515.56;5059300;28;20090;-78
2023/01/04 04:24:17;;;;;;;1.00;0.60;;;;;;;8.79;52.83;101510.75;5070078;28;20045;-78
2023/01/04 04:26:46;;;;;;;0.85;0.50;;;;;;;8.82;52.45;101513.28;5051964;28;20101;-78
2023/01/04 04:29:14;;;;;;;1.73;0.50;;;;;;;8.83;52.14;101512.31;5069213;28;20041;-78
2023/01/04 04:31:42;;;;;;;1.35;0.80;;;;;;;8.85;51.96;101503.00;5065520;28;20032;-78
2023/01/04 04:34:10;;;;;;;1.27;0.65;;;;;;;8.88;52.17;101500.06;5060421;28;20499;-78
2023/01/04 04:36:39;;;;;;;0.77;0.50;;;;;;;8.90;52.47;101498.13;5068416;28;20044;-78
2023/01/04 04:39:07;;;;;;;1.17;0.60;;;;;;;8.93;52.07;101508.81;5066024;28;20427;-77
2023/01/04 04:41:40;;;;;;;1.88;0.60;;;;;;;8.94;51.89;101491.44;5062587;28;20512;-77
2023/01/04 04:44:12;;;;;;;1.05;0.60;;;;;;;9.00;52.49;101506.53;5063372;28;20110;-78
2023/01/04 04:46:41;;;;;;;0.75;0.50;;;;;;;8.99;52.38;101492.00;5061691;28;20446;-78
2023/01/04 04:49:09;;;;;;;0.98;0.47;;;;;;;9.03;52.22;101489.91;5061385;28;20055;-77
2023/01/04 04:51:37;;;;;;;0.68;0.50;;;;;;;9.05;52.30;101490.69;5072247;28;20044;-78
2023/01/04 04:54:08;;;;;;;0.80;0.50;;;;;;;9.08;52.42;101483.13;5063616;28;20041;-77
2023/01/04 04:56:37;;;;;;;0.73;0.50;;;;;;;9.08;52.08;101474.94;5075227;28;20047;-78
2023/01/04 04:59:06;;;;;;;0.90;0.50;;;;;;;9.11;52.18;101482.06;5067116;28;20047;-78
2023/01/04 05:01:35;;;;;;;0.30;0.30;;;;;;;9.14;51.95;101478.25;5069471;28;20079;-78
2023/01/04 05:04:03;;;;;;;0.50;0.40;;;;;;;9.14;52.01;101479.09;5070515;28;20102;-79
2023/01/04 05:06:32;;;;;;;1.20;0.40;;;;;;;9.16;52.21;101468.97;5071408;28;20055;-78
2023/01/04 05:09:00;;;;;;;0.70;0.40;;;;;;;9.18;52.15;101477.00;5065968;28;20125;-78
2023/01/04 05:14:15;;;;;;;0.52;0.28;;;;;;;9.19;52.11;101463.25;5045945;28;20514;-78
2023/01/04 05:16:44;;;;;;;1.05;0.40;;;;;;;9.24;52.09;101458.34;5082903;28;20532;-78
2023/01/04 05:19:12;;;;;;;0.85;0.50;;;;;;;9.23;52.45;101470.25;5079539;28;20044;-78
2023/01/04 05:21:40;;;;;;;1.08;0.60;;;;;;;9.26;52.19;101461.81;5061115;28;20043;-78
2023/01/04 05:24:11;;;;;;;1.13;0.50;;;;;;;9.29;52.10;101450.69;5071563;28;20090;-78
2023/01/04 05:26:39;;;;;;;1.85;0.55;;;;;;;9.30;52.02;101460.63;5062313;28;20041;-78
2023/01/04 05:30:49;;;;;;;0.32;0.32;;;;;;;9.31;52.25;101450.59;5067114;28;20507;-78
2023/01/04 05:31:55;;;;;;;0.40;0.32;;;;;;;9.33;52.22;101449.47;5068929;28;20051;-78
2023/01/04 05:34:23;;;;;;;0.40;0.40;;;;;;;9.36;52.01;101451.09;5067232;28;20049;-78
2023/01/04 05:36:51;;;;;;;1.45;0.60;;;;;;;9.37;52.26;101452.84;5053504;28;20409;-78
2023/01/04 05:39:19;;;;;;;1.52;0.50;;;;;;;9.39;52.21;101445.47;5063510;28;20072;-78
2023/01/04 05:44:32;;;;;;;0.98;0.50;;;;;;;9.40;51.88;101439.03;5061739;28;20037;-78
2023/01/04 05:47:01;;;;;;;1.45;0.70;;;;;;;9.44;51.93;101435.94;5067747;28;20145;-78
2023/01/04 05:49:28;;;;;;;1.45;0.60;;;;;;;9.44;52.00;101422.28;5085604;28;20039;-78
2023/01/04 05:51:56;;;;;;;1.40;0.60;;;;;;;9.46;51.77;101419.44;5088783;28;20506;-78
2023/01/04 05:54:24;;;;;;;1.40;0.50;;;;;;;9.47;52.06;101412.97;5073652;28;20502;-78
2023/01/04 05:56:52;;;;;;;0.75;0.50;;;;;;;9.50;51.91;101415.47;5067420;28;20313;-78
2023/01/04 05:59:20;;;;;;;0.65;0.50;;;;;;;9.51;52.30;101408.16;5065747;28;20134;-78
2023/01/04 06:01:47;;;;;;;0.52;0.50;;;;;;;9.53;52.22;101408.91;5054297;28;20087;-78
2023/01/04 06:04:17;;;;;;;0.75;0.45;;;;;;;9.56;52.32;101395.03;5056231;28;20553;-78
2023/01/04 06:06:44;;;;;;;1.67;0.50;;;;;;;9.56;52.18;101398.63;5092637;28;20391;-78
2023/01/04 06:09:12;;;;;;;0.77;0.50;;;;;;;9.58;52.31;101401.22;5073989;28;20086;-78
2023/01/04 06:11:40;;;;;;;0.95;0.40;;;;;;;9.61;52.19;101403.75;5079554;28;20041;-78
2023/01/04 06:14:08;;;;;;;0.52;0.38;;;;;;;9.62;52.18;101403.63;5071002;28;20054;-78
2023/01/04 06:16:36;;;;;;;0.35;0.32;;;;;;;9.64;52.31;101400.78;5062459;28;20499;-78
2023/01/04 06:19:04;;;;;;;1.58;0.55;;;;;;;9.64;52.01;101396.19;5068543;28;20052;-78
2023/01/04 06:21:33;;;;;;;1.60;0.85;;;;;;;9.68;51.95;101402.28;5070692;28;20090;-78
2023/01/04 06:24:01;;;;;;;1.98;0.60;;;;;;;9.69;52.03;101395.84;5067269;28;20120;-78
2023/01/04 06:26:28;;;;;;;1.35;0.60;;;;;;;9.69;51.91;101395.84;5064872;28;20032;-78
2023/01/04 06:28:56;;;;;;;1.20;0.70;;;;;;;9.71;52.22;101391.13;5064684;28;20047;-78
2023/01/04 06:31:24;;;;;;;0.88;0.50;;;;;;;9.72;52.38;101391.03;5069113;28;20047;-78
2023/01/04 06:33:52;;;;;;;1.17;0.63;;;;;;;9.74;51.95;101377.25;5076189;28;20083;-78
2023/01/04 06:36:20;;;;;;;1.38;0.60;;;;;;;9.75;52.07;101374.38;5067913;28;20051;-78
2023/01/04 06:38:49;;;;;;;1.83;0.80;;;;;;;9.79;52.09;101369.56;5072167;28;20072;-78
2023/01/04 06:41:17;;;;;;;1.33;0.60;;;;;;;9.78;51.95;101376.88;5055734;28;20039;-78
2023/01/04 06:43:45;;;;;;;0.77;0.60;;;;;;;9.80;52.15;101369.44;5044157;28;20095;-78
2023/01/04 06:46:13;;;;;;;0.90;0.63;;;;;;;9.81;52.11;101363.00;5078527;28;20059;-78
2023/01/04 06:48:41;;;;;;;1.00;0.52;;;;;;;9.83;51.88;101365.59;5086572;28;20079;-78
2023/01/04 06:51:10;;;;;;;1.65;0.70;;;;;;;9.85;51.88;101352.69;5075816;28;20052;-78
2023/01/04 06:53:38;;;;;;;0.75;0.45;;;;;;;9.85;52.12;101355.41;5074389;28;20048;-77
2023/01/04 06:56:08;;;;;;;0.55;0.40;;;;;;;9.88;52.27;101371.59;5067781;28;20427;-77
2023/01/04 06:58:37;;;;;;;1.08;0.45;;;;;;;9.89;51.79;101372.47;5071794;28;20048;-77
2023/01/04 07:01:06;;;;;;;1.23;0.82;;;;;;;9.91;52.23;101373.19;5069135;28;20098;-77
2023/01/04 07:03:34;;;;;;;0.60;0.50;;;;;;;9.91;52.16;101374.06;5071317;28;20136;-77
2023/01/04 07:06:04;;;;;;;1.70;0.70;;;;;;;9.94;52.02;101379.31;5066207;28;20056;-77
2023/01/04 07:08:32;;;;;;;1.42;0.50;;;;;;;9.94;52.04;101372.97;5072615;28;20118;-77
2023/01/04 07:11:00;;;;;;;1.10;0.52;;;;;;;9.96;51.97;101369.16;5083512;28;20138;-77
2023/01/04 07:13:30;;;;;;;0.65;0.40;;;;;;;9.99;52.29;101365.31;5065243;28;20054;-78
2023/01/04 07:15:58;;;;;;;0.55;0.47;;;;;;;9.98;51.85;101363.56;5082961;28;20044;-78
2023/01/04 07:18:26;;;;;;;0.60;0.50;;;;;;;10.01;51.97;101355.09;5079892;28;20051;-78
2023/01/04 07:20:53;;;;;;;1.00;0.40;;;;;;;10.02;52.16;101354.13;5089583;28;20048;-77
2023/01/04 07:23:21;;;;;;;0.60;0.50;;;;;;;10.02;52.01;101351.38;5081910;28;20063;-77
2023/01/04 07:25:49;;;;;;;0.77;0.50;;;;;;;10.05;52.02;101362.97;5080382;28;20103;-78
2023/01/04 07:29:13;;;;;;;1.52;0.50;;;;;;;10.07;52.07;101357.38;5073415;28;20040;-77
2023/01/04 07:31:08;;;;;;;0.98;0.43;;;;;;;10.07;51.82;101328.16;5071234;28;20048;-77
2023/01/04 07:33:36;;;;;;;0.82;0.43;;;;;;;10.09;52.08;101339.84;5087813;28;20410;-77
2023/01/04 07:36:06;;;;;;;0.60;0.30;;;;;;;10.12;52.27;101352.41;5065703;28;20040;-77
2023/01/04 07:38:34;;;;;;;0.98;0.60;;;;;;;10.13;52.36;101340.50;5072840;28;20040;-77
2023/01/04 07:41:02;;;;;;;0.30;0.30;;;;;;;10.15;52.48;101350.28;5089031;28;20052;-77
2023/01/04 07:43:29;;;;;;;0.90;0.38;;;;;;;10.15;51.98;101335.78;5069863;28;20040;-78
2023/01/04 07:45:57;;;;;;;0.52;0.30;;;;;;;10.16;52.26;101349.31;5077288;28;20040;-79
2023/01/04 07:48:28;;;;;;;0.88;0.50;;;;;;;10.20;52.35;101359.03;5064930;28;20048;-78
2023/01/04 07:50:56;;;;;;;1.63;0.60;;;;;;;10.20;51.69;101349.97;5062344;28;20037;-77
2023/01/04 07:53:24;;;;;;;0.90;0.57;;;;;;;10.22;51.90;101353.44;5068759;28;20131;-78
2023/01/04 07:55:55;;;;;;;0.50;0.40;;;;;;;10.27;51.97;101347.59;5085963;28;20036;-77
2023/01/04 07:58:23;;;;;;;0.73;0.30;;;;;;;10.27;51.91;101364.03;5067252;28;20056;-78
2023/01/04 08:00:51;;;;;;;0.32;0.32;;;;;;;10.27;51.93;101348.47;5081458;28;20093;-78
2023/01/04 08:03:19;;;;;;;1.80;0.30;;;;;;;10.29;52.16;101356.56;5084167;28;20471;-78
2023/01/04 08:05:48;;;;;;;0.38;0.30;;;;;;;10.32;52.09;101362.66;5085284;28;20046;-78
2023/01/04 08:08:16;;;;;;;0.38;0.38;;;;;;;10.31;51.79;101341.78;5083911;28;20067;-78
2023/01/04 08:10:44;;;;;;;0.73;0.50;;;;;;;10.34;52.01;101343.38;5076235;28;20036;-77
2023/01/04 08:13:12;;;;;;;0.50;0.50;;;;;;;10.34;52.04;101347.00;5074033;28;20127;-77
2023/01/04 08:15:40;;;;;;;1.65;0.68;;;;;;;10.36;52.06;101342.28;5068873;28;20530;-78
2023/01/04 08:18:07;;;;;;;0.65;0.47;;;;;;;10.37;52.00;101360.44;5072340;28;20109;-77
2023/01/04 08:20:35;;;;;;;0.65;0.50;;;;;;;10.39;52.03;101349.38;5058978;28;20041;-78
2023/01/04 08:23:04;;;;;;;0.80;0.50;;;;;;;10.40;51.73;101354.72;5070172;28;20056;-77
2023/01/04 08:25:32;;;;;;;1.83;0.55;;;;;;;10.40;51.74;101357.44;5067663;28;20066;-77
2023/01/04 08:28:00;;;;;;;1.40;0.47;;;;;;;10.43;52.15;101345.41;5076455;28;20044;-78
2023/01/04 08:30:28;;;;;;;1.10;0.40;;;;;;;10.43;52.09;101343.53;5064980;28;20034;-78
2023/01/04 08:32:56;;;;;;;0.98;0.60;;;;;;;10.44;52.02;101342.53;5076533;28;20043;-78
2023/01/04 08:35:24;;;;;;;0.90;0.50;;;;;;;10.45;51.83;101338.81;5073188;28;20529;-77
2023/01/04 08:37:51;;;;;;;1.90;0.70;;;;;;;10.48;52.21;101340.44;5086448;28;20036;-77
2023/01/04 08:40:21;;;;;;;1.23;0.68;;;;;;;10.49;51.92;101332.09;5086043;28;20112;-77
2023/01/04 08:43:09;;;;;;;0.70;0.50;;;;;;;10.48;52.09;101324.88;5067812;28;20042;-78
2023/01/04 08:45:37;;;;;;;1.10;0.52;;;;;;;10.51;51.61;101330.13;5078120;28;20126;-77
2023/01/04 08:48:05;;;;;;;0.88;0.60;;;;;;;10.52;51.99;101331.84;5089575;28;20158;-78
2023/01/04 08:50:33;;;;;;;1.45;0.60;;;;;;;10.54;52.13;101331.78;5078541;28;20501;-78
2023/01/04 08:53:00;;;;;;;1.13;0.75;;;;;;;10.54;51.79;101315.34;5096811;28;20048;-78
2023/01/04 08:55:30;;;;;;;1.10;0.60;;;;;;;10.59;52.02;101324.06;5073660;28;20045;-77
2023/01/04 08:58:00;;;;;;;1.65;0.70;;;;;;;10.58;51.90;101331.41;5079666;28;20050;-78
2023/01/04 09:00:27;;;;;;;2.13;0.68;;;;;;;10.58;51.89;101317.72;5077569;28;20048;-77
2023/01/04 09:02:55;;;;;;;0.85;0.60;;;;;;;10.60;51.87;101325.81;5075093;23;20119;-71
2023/01/04 09:05:24;;;;;;;1.05;0.55;;;;;;;10.60;51.71;101313.00;5048470;28;20052;-70
2023/01/04 09:07:52;;;;;;;1.35;0.68;;;;;;;10.61;52.01;101316.59;5047761;28;20515;-71
2023/01/04 09:10:20;;;;;;;1.20;0.60;;;;;;;10.63;51.68;101324.69;5056766;28;20074;-71
2023/01/04 09:12:49;;;;;;;1.67;0.60;;;;;;;10.65;52.14;101317.25;5069956;28;20260;-71
2023/01/04 09:15:18;;;;;;;0.70;0.43;;;;;;;10.64;52.01;101318.22;5051723;28;20079;-70
2023/01/04 09:17:46;;;;;;;1.98;0.80;;;;;;;10.65;51.78;101339.13;5070544;28;20052;-69
2023/01/04 09:20:33;;;;;;;1.42;0.63;;;;;;;10.63;51.75;101317.34;5069430;28;20140;-71
2023/01/04 09:23:01;;;;;;;1.05;0.50;;;;;;;10.67;52.13;101321.56;5071031;28;20052;-70
2023/01/04 09:25:29;;;;;;;1.20;0.50;;;;;;;10.68;51.70;101328.78;5068963;28;20713;-73
2023/01/04 09:27:58;;;;;;;0.57;0.50;;;;;;;10.71;52.23;101312.13;5069539;28;20042;-69
2023/01/04 09:30:26;;;;;;;0.43;0.40;;;;;;;10.71;51.57;101314.00;5084029;28;20071;-69
2023/01/04 09:32:54;;;;;;;0.73;0.47;;;;;;;10.72;52.17;101302.94;5073817;28;20045;-68
2023/01/04 09:35:22;;;;;;;1.27;0.50;;;;;;;10.74;52.04;101306.38;5068866;28;20048;-68
2023/01/04 09:37:50;;;;;;;0.85;0.50;;;;;;;10.76;51.72;101309.88;5070179;28;20040;-67
2023/01/04 09:40:22;;;;;;;0.65;0.50;;;;;;;10.80;51.94;101308.66;5069635;28;20040;-69
2023/01/04 09:42:52;;;;;;;0.85;0.60;;;;;;;10.77;51.90;101306.16;5070455;28;20094;-67
2023/01/04 09:45:41;;;;;;;0.68;0.50;;;;;;;10.81;51.53;101313.09;5051453;28;20056;-68
2023/01/04 09:48:14;;;;;;;0.45;0.45;;;;;;;10.83;51.65;101286.47;5068116;28;20400;-69
2023/01/04 09:50:53;;;;;;;0.40;0.40;;;;;;;10.84;51.51;101317.47;5066154;28;20071;-68
2023/01/04 09:53:24;;;;;;;1.58;0.50;;;;;;;10.87;51.91;101303.53;5069995;28;20127;-69
2023/01/04 09:55:55;;;;;;;1.52;0.70;;;;;;;10.86;51.60;101297.19;5069094;28;20406;-68
2023/01/04 09:58:27;;;;;;;0.50;0.40;;;;;;;10.89;51.98;101290.59;5070155;28;20083;-67
2023/01/04 10:01:01;;;;;;;0.75;0.50;;;;;;;10.90;51.63;101295.91;5069506;28;20048;-68
2023/01/04 10:03:33;;;;;;;1.10;0.40;;;;;;;10.92;51.58;101301.28;5068842;28;20048;-67
2023/01/04 10:06:01;;;;;;;1.15;0.40;;;;;;;10.93;51.41;101306.63;5068896;28;20056;-68
2023/01/04 10:08:31;;;;;;;1.83;0.47;;;;;;;10.94;51.98;101310.25;5070070;28;20048;-69
2023/01/04 10:11:16;;;;;;;0.70;0.50;;;;;;;10.97;51.79;101319.09;5068646;28;20060;-69
2023/01/04 10:14:14;;;;;;;0.63;0.40;;;;;;;10.95;52.30;101304.66;5067986;28;20151;-70
2023/01/04 10:17:06;;;;;;;0.80;0.50;;;;;;;10.97;51.61;101321.84;5069110;28;20048;-69
2023/01/04 10:20:08;;;;;;;2.42;1.00;;;;;;;10.97;52.12;101315.50;5068477;28;20040;-67
2023/01/04 10:23:05;;;;;;;2.20;0.40;;;;;;;10.98;52.24;101317.19;5069118;28;20040;-68
2023/01/04 10:25:44;;;;;;;0.38;0.22;;;;;;;11.00;52.37;101315.22;5068479;28;20052;-68
2023/01/04 10:28:29;;;;;;;0.40;0.40;;;;;;;10.98;52.13;101309.84;5074596;28;20492;-67
2023/01/04 10:31:05;;;;;;;0.65;0.40;;;;;;;10.99;52.49;101302.50;5082848;28;20048;-68
2023/01/04 10:34:02;;;;;;;0.73;0.40;;;;;;;10.97;52.43;101291.72;5083233;28;20101;-68
2023/01/04 10:36:31;;;;;;;0.57;0.40;;;;;;;10.96;52.00;101289.97;5081962;28;20123;-69
2023/01/04 10:39:02;;;;;;;0.47;0.40;;;;;;;10.97;52.27;101296.31;5085278;28;20802;-69
2023/01/04 10:41:37;;;;;;;1.45;0.50;;;;;;;10.97;52.54;101275.28;5086265;28;20559;-68
2023/01/04 10:44:16;;;;;;;1.05;0.50;;;;;;;10.95;52.13;101281.88;5058824;28;20115;-68
2023/01/04 10:46:50;;;;;;;1.35;0.50;;;;;;;10.93;52.61;101282.00;5081799;28;20568;-68
2023/01/04 10:49:27;;;;;;;0.32;0.30;;;;;;;10.93;52.41;101272.91;5086675;28;20119;-68
2023/01/04 10:52:00;;;;;;;0.90;0.57;;;;;;;10.91;51.97;101273.03;5083953;28;20055;-68
2023/01/04 10:54:34;;;;;;;0.50;0.30;;;;;;;10.89;52.37;101266.81;5076858;28;20458;-69
2023/01/04 10:57:08;;;;;;;0.65;0.50;;;;;;;10.90;52.42;101262.19;5077390;28;20040;-69
2023/01/04 10:59:42;;;;;;;0.75;0.30;;;;;;;10.88;52.70;101248.66;5085684;28;20032;-68
2023/01/04 11:02:19;;;;;;;1.05;0.65;;;;;;;10.88;53.05;101243.19;5084136;28;20136;-68
2023/01/04 11:04:56;;;;;;;0.82;0.70;;;;;;;10.88;53.20;101248.66;5067531;28;20055;-69
2023/01/04 11:07:26;;;;;;;1.15;0.77;;;;;;;10.87;52.38;101257.00;5083983;28;20040;-68
2023/01/04 11:10:01;;;;;;;1.42;0.70;;;;;;;10.88;53.08;101253.25;5082710;28;20509;-69
2023/01/04 11:12:29;;;;;;;0.93;0.60;;;;;;;10.87;52.95;101246.91;5078733;28;20044;-70
2023/01/04 11:14:57;;;;;;;1.92;0.55;;;;;;;10.85;52.96;101243.41;5082772;28;20047;-70
2023/01/04 11:17:25;;;;;;;1.23;0.60;;;;;;;10.87;53.16;101246.03;5078001;28;20160;-70
2023/01/04 11:19:55;;;;;;;0.90;0.57;;;;;;;10.90;52.78;101235.69;5081029;28;20044;-71
2023/01/04 11:22:28;;;;;;;1.15;0.50;;;;;;;10.89;53.35;101244.91;5083867;28;20040;-70
2023/01/04 11:25:01;;;;;;;0.80;0.50;;;;;;;10.90;52.76;101232.94;5082271;28;20044;-71
2023/01/04 11:27:52;;;;;;;1.85;0.55;;;;;;;10.88;53.06;101234.97;5080068;28;20048;-70
2023/01/04 11:30:24;;;;;;;0.85;0.50;;;;;;;10.92;53.28;101236.44;5082677;28;20052;-71
2023/01/04 11:32:57;;;;;;;0.95;0.47;;;;;;;10.94;53.36;101230.84;5082555;28;20129;-70
2023/01/04 11:35:39;;;;;;;;;;;;;;;10.67;54.03;101228.50;5084384;28;20660;-70
2023/01/04 11:38:12;;;;;;;1.38;0.50;;;;;;;10.89;53.18;101231.22;5085470;28;20407;-70
2023/01/04 11:40:41;;;;;;;0.85;0.40;;;;;;;10.94;53.29;101225.34;5085736;28;20032;-70
2023/01/04 11:43:17;;;;;;;1.17;0.47;;;;;;;10.97;53.54;101211.41;5067413;28;20048;-70
2023/01/04 11:45:57;;;;;;;0.93;0.50;;;;;;;10.98;53.56;101222.22;5076964;28;20492;-68
2023/01/04 11:48:37;;;;;;;1.00;0.50;;;;;;;10.99;53.68;101220.34;5084652;28;20044;-69
2023/01/04 11:51:17;;;;;;;1.60;0.60;;;;;;;11.00;53.59;101211.13;5085349;28;20048;-70
2023/01/04 11:53:45;;;;;;;0.73;0.60;;;;;;;10.99;53.04;101221.22;5076915;28;20051;-70
2023/01/04 11:56:17;;;;;;;1.52;0.70;;;;;;;11.03;53.39;101219.09;5084133;28;20036;-70
2023/01/04 11:59:13;;;;;;;0.88;0.70;;;;;;;11.02;53.74;101216.50;5085046;28;20046;-70
2023/01/04 12:02:18;;;;;;;0.95;0.50;;;;;;;11.04;53.37;101206.28;5084217;28;20051;-70
2023/01/04 12:05:18;;;;;;;1.17;0.80;;;;;;;11.04;53.91;101220.84;5085072;28;20054;-70
2023/01/04 12:07:57;;;;;;;0.40;0.40;;;;;;;11.06;53.54;101201.56;5078581;28;20040;-70
2023/01/04 12:10:26;;;;;;;0.20;0.20;;;;;;;11.07;53.32;101181.34;5085133;28;20091;-69
2023/01/04 12:12:56;;;;;;;0.98;0.50;;;;;;;11.09;53.34;101173.88;5084762;28;20105;-70
2023/01/04 12:15:32;;;;;;;0.38;0.38;;;;;;;11.11;53.17;101178.25;5084100;28;20043;-70
2023/01/04 12:18:06;;;;;;;1.10;0.47;;;;;;;11.13;53.65;101186.34;5082943;28;20083;-69
2023/01/04 12:20:36;;;;;;;0.75;0.50;;;;;;;11.13;53.57;101175.38;5070013;28;20068;-70
2023/01/04 12:23:05;;;;;;;0.63;0.40;;;;;;;11.14;53.07;101188.09;5082708;28;20051;-70
2023/01/04 12:25:42;;;;;;;0.90;0.50;;;;;;;11.16;53.43;101165.00;5066781;28;20048;-70
2023/01/04 12:28:28;;;;;;;0.80;0.43;;;;;;;11.16;54.03;101173.25;5080828;28;20111;-70
2023/01/04 12:31:32;;;;;;;1.05;0.47;;;;;;;11.16;53.82;101186.06;5084956;28;20070;-70
2023/01/04 12:34:40;;;;;;;0.40;0.40;;;;;;;11.15;53.64;101187.94;5085377;28;20047;-70
2023/01/04 12:37:10;;;;;;;0.52;0.40;;;;;;;11.17;53.13;101182.31;5049084;28;20052;-69